Timeline UpdatesTrip UpdatesNews PostsPvt PostsTravel TipsAdmin PostsConv PostsFollowed PostsChat RequestsBlog PostsPNR Posts

Disclaimer
Search
 
 
Sat Jul 26, 2014 12:37:14 ISTHomeTrainsΣChainsAtlasPNRForumGalleryNewsFAQTripsMembersLoginFeedback
No Recent News for this Train
Other Trains in the News **new
Latest...
.
Thu Jan 03, 2013 (07:52PM)
⇐ Return Journey: Train# 12137

12138/Punjab Mail

Dec 31 2013 (1:19PM)
Change Departure Station:
Change Arrival Station:
Post a Train Travel TipPost a Train Travel Tip **new
Post a Comment/Question/Picture/VideoPost a Comment/Question/Picture/Video
Inaugural Run
Sat Jun 01, 1912
Pantry/Catering
✓ Pantry Car Avbl
✓ Catering Avbl
RSA - Rake Sharing
No RSA.
Rake/Coach Composition
Loco-SLR(Ladies+ RMS)-GEN (Military)-HA1-A1-AB1-B1-B2-B3-B4-B5-S1-PC-S2-S3-S4-S5-S6-S7-S8-S9-S10-GEN-GEN-SLR
Loco
FZR-NDLS=> BGKT WDP-4/4B; NDLS-IGP=> GZB WAP-4; IGP-CSTM=> KYN WCAM-2P/3
News    PNR    Forum    Time-Table    Availability    Fare Chart    Map    Arr/Dep History    Trips    Gallery    ΣChains    X/O    Timeline    
Travel Time: 1h 36m    3 halts    Distance: 71 km    Avg Speed: 44 km/hr
Type: SuperFast
Zone: CR/Central
Departs @ 03:14
Platform# ???
SMTWTFS
Rohtak Junction/ROK 
Arrives @ 04:50
Platform# 3
SMTWTFS
New Delhi/NDLS 

3 halts. 16 intermediate Stations between Rohtak Junction and New Delhi

Show ALL intermediate Stations  Show Old Time-Table

#CodeStation NameX/OArrivesAvgDepartsAvgHaltPFDay#KmSpeedElevZoneAddress
1FZRFirozpur Cantt. Junction (5)  -21:40-11-316.477200mNRFirozpur Cantt 152001, Punjab
2FDKFaridkot (3)  22:05-22:07-2m11-284.155202mNRFaridkot, Punjab
3KKPKot Kapura Junction (3)  22:21-22:23-2m11-271.4650mNRKotkapura, Punjab
4GJUTGangsar Jaitu (3)X  22:38-22:40-2m11-255.161207mNRJaitu, Punjab
5GNAGoneana Bhai Jagta (3)  22:54-22:56-2m11-240.925206mNRGoniana, Punjab
6BTIBathinda Junction (6)X  23:25-23:35-10m41-228.679208mNRBathinda, Punjab
7MAURMaur  00:02-00:04-2m12-193.175220mNRMaur Mandi, Punjab
8MSZMansa  00:19-00:21-2m12-174.469222mNRMansa, Punjab
9BLZBudhlada  00:35-00:37-2m12-158.371223mNRBudhlada, Punjab
10BRZBareta  00:50-00:52-2m12-142.953223mNRBareta, Punjab
11JHLJakhal JunctionX  01:08-01:10-2m--2-128.752225mNRJakhal, Haryana
12TUNTohana (2)X  01:24-01:26-2m12-116.480232mNRTohana, Haryana
13NRWNarwana Junction (4)  01:45-01:47-2m--2-91.060235mNRWay to Narwana, Haryana
14JINDJind Junction (3)X  02:21-02:23-2m--2-57.170222mNR126102., Haryana
15ROK»Rohtak Junction (3)»  03:12-03:14-2m--20.081220mNRRohtak, Haryana
16BGZBahadurgarh  03:44-03:46-2m--240.348220mNRBahadurgarh, Haryana
17SSBShakur Basti  04:11-04:13-2m--260.235216mNRPitampura, Delhi NCT
18DKZDelhi KishanGanj (2)  04:25-04:27-2m1267.210220mNRSarai Rohilla, Delhi NCT
19NDLS•New Delhi (16)•X04:50-05:15-25m3271.158215mNRNew Delhi, Delhi NCT
20FDBFaridabad (4)  05:44-05:46-2m3299.261206mNRold Faridabad, Haryana
21KSVKosi Kalan (3)O  06:57-06:59-2m12171.065189mNCRKosi Kalan, Uttar Pradesh
22MTJMathura Junction (10)X  07:37-07:40-3m12212.473179mNCRMathura, Uttar Pradesh
23RKMRaja Ki Mandi (4)X  08:21-08:23-2m22262.19170mNCRAgra, Uttar Pradesh
24AGCAgra Cantt. (6)X  08:50-08:55-5m12266.190174mNCRAgra, Uttar Pradesh
25DHODholpur Junction (3)X  09:30-09:32-2m22318.770177mNCRDholpur, Rajasthan
26MRAMorena (3)  09:55-09:57-2m12345.575176mNCRMorena, Madhya Pradesh
27GWLGwalior Junction (4)  10:28-10:33-5m12384.163214mNCRGwalior, Madhya Pradesh
28DBADabra (3)X  11:13-11:15-2m12426.467204mNCRDabra(District-Gwalior), Madhya Pradesh
29DAADatia (2)O  11:42-11:44-2m12456.837264mNCRDatia, Madhya Pradesh
30JHSJhansi Junction (7)X  12:25-12:33-8m32481.861259mNCRJhansi, Uttar Pradesh
31BABBabina (3)X  12:58-13:00-2m12507.386285mNCRBabina, Uttar Pradesh
32LARLalitpur (3)  13:45-13:47-2m12572.165373mNCRLalitpur, Uttar Pradesh
33BINABina Junction (4)  14:45-14:50-5m22635.086414mWCRJn Pt - KATNI/GUNA/ BPL/JHS, Madhya Pradesh
34BAQGanj Basoda (4)  15:22-15:24-2m22680.884416mWCRVidisha, Madhya Pradesh
35BHSVidisha (3)X  15:52-15:54-2m22720.157432mWCRVidisha, Madhya Pradesh
36BPLBhopal Junction (6)X  16:50-16:55-5m12773.638497mWCRBhopal, Madhya Pradesh
37HBJBhopal HabibGanj (5)  17:05-17:07-2m42779.970496mWCRHabibGanj, Madhya Pradesh
38HBDHoshangabad (2)X  18:05-18:07-2m22847.239308mWCRHoshangabad, Madhya Pradesh
39ETItarsi Junction (7)  18:35-18:40-5m42865.384329mWCRItarsi 461111, Madhya Pradesh
40BPFBanapura (2)X  19:04-19:06-2m12898.882314mWCRBanapura, Madhya Pradesh
41HDHarda (3)X  19:37-19:39-2m12941.176289mWCRHarda, Madhya Pradesh
42KKNKhirkiya (2)X  20:04-20:06-2m12972.749281mWCRSH 15, Madhya Pradesh
43KNWKhandwa Junction (5)X  21:40-21:45-5m221048.886310mCRKhandwa, Madhya Pradesh
44BAUBurhanpur (2)  22:33-22:35-2m121117.665269mCRBurhanpur, Madhya Pradesh
45BSLBhusaval Junction (8)X  23:25-23:35-10m321172.160208mCRBhusaval 425201, Maharashtra
46JLJalgaon Junction (4)  23:59-00:01-2m221196.296213mCRJalgaon 425001, Maharashtra
47CSNChalisgaon Junction (3)  00:59-01:01-2m131288.883352mCRChalisgaon 424101, Maharashtra
48MMRManmad Junction (6)XO  01:50-01:55-5m331356.387580mCRManmad 423104, Maharashtra
49NKNasik Road (3)X  02:45-02:50-5m331429.143563mCRNashik 422101, Maharashtra
50DVLDevlali (3)X  02:58-03:00-2m231434.832561mCRDist. Nashik 422401, Maharashtra
51IGPIgatpuri (4)04:25-04:30-5m331479.745589mCRIgatpuri 422403, Maharashtra
52KYNKalyan Junction (8)X  06:20-06:25-5m531561.55910mCRKalyan 421301, Maharashtra
53DRMumbai Dadar Central (8)X  07:10-07:15-5m631606.0267mCRMumbai 400014, Maharashtra
54CSTMMumbai CST (18)  07:35--1431614.6-10mCRMumbai 400001, Maharashtra
Scroll to Top
Scroll to Bottom